Hendrix, North Carolina
Current Conditions -  °F | °C
As of 3:35 PM on Sunday 21 Dec 2014 (Local Time) from KTNB Reporting Station
Overcast Overcast  
Wind Chill: 34°   Ceiling: 1300
Heat Index: 38°   Visibility: 7mi
Dew Point: 33°   Wind: 5mph
Humidity: 82%   Direction: 130°SE
Pressure: 30.14"   Gusts: NA
Location:  36.1322°N, 81.415°W
Report Text: KTNB 212035Z AUTO 13004KT 7SM SCT010 OVC013 03/00 A3014 RMK AO2 T00320004
Loading
Personal Weather Stations






























Interactive Weather Map New forecast layout! Learn more

10-Day Weather Forecast

Advertisements
Track Severe Weather on mobile